createdAt,value
2022-12-25T00:00:26.707Z,13.45
2022-12-25T00:05:32.160Z,14.10
2022-12-25T00:10:43.000Z,11.07
2022-12-25T00:15:47.686Z,10.73
2022-12-25T00:20:58.623Z,9.33
2022-12-25T00:26:04.980Z,12.13
2022-12-25T00:31:10.046Z,6.70
2022-12-25T00:36:17.526Z,8.17
2022-12-25T00:41:43.237Z,6.50
2022-12-25T00:46:45.897Z,7.50
2022-12-25T00:51:49.993Z,11.45
2022-12-25T00:56:52.481Z,11.75
2022-12-25T01:01:55.171Z,10.87
2022-12-25T01:06:57.711Z,5.13
2022-12-25T01:12:00.223Z,7.07
2022-12-25T01:17:02.747Z,5.70
2022-12-25T01:22:05.324Z,6.22
2022-12-25T01:27:07.817Z,5.93
2022-12-25T01:32:10.343Z,6.70
2022-12-25T01:37:12.927Z,5.90
2022-12-25T01:42:21.714Z,6.30
2022-12-25T01:47:24.204Z,5.88
2022-12-25T01:52:26.709Z,4.20
2022-12-25T01:57:34.120Z,6.45
2022-12-25T02:02:37.851Z,5.30
2022-12-25T02:07:41.561Z,5.07
2022-12-25T02:12:45.746Z,5.53
2022-12-25T02:17:59.949Z,6.03
2022-12-25T02:23:14.357Z,5.93
2022-12-25T02:28:29.025Z,4.90
2022-12-25T02:34:05.555Z,5.95
2022-12-25T02:39:40.630Z,5.57
2022-12-25T02:45:04.192Z,7.00
2022-12-25T02:50:26.992Z,6.35
2022-12-25T02:55:54.472Z,6.90
2022-12-25T03:01:25.580Z,5.88
2022-12-25T03:06:44.785Z,6.35
2022-12-25T03:11:52.805Z,6.47
2022-12-25T03:16:58.233Z,7.38
2022-12-25T03:22:19.828Z,8.77
2022-12-25T03:27:23.366Z,6.72
2022-12-25T03:33:18.040Z,8.55
2022-12-25T03:39:14.807Z,9.53
2022-12-25T03:44:54.668Z,6.72
2022-12-25T03:50:48.992Z,8.03
2022-12-25T03:56:11.987Z,7.63
2022-12-25T04:01:32.913Z,9.68
2022-12-25T04:06:54.082Z,9.77
2022-12-25T04:12:19.377Z,8.25
2022-12-25T04:17:40.310Z,8.17
2022-12-25T04:23:01.277Z,8.23
2022-12-25T04:28:22.618Z,11.30
2022-12-25T04:33:43.472Z,8.70
2022-12-25T04:38:46.008Z,9.93
2022-12-25T04:43:48.566Z,7.17
2022-12-25T04:48:51.146Z,7.95
2022-12-25T04:53:53.946Z,7.88
2022-12-25T04:58:56.518Z,10.07
2022-12-25T05:03:59.142Z,8.40
2022-12-25T05:09:01.689Z,10.30
2022-12-25T05:14:07.157Z,13.75
2022-12-25T05:19:12.671Z,10.02
2022-12-25T05:24:15.203Z,9.57
2022-12-25T05:29:17.674Z,14.77
2022-12-25T05:34:20.184Z,11.07
2022-12-25T05:39:23.314Z,10.35
2022-12-25T05:44:25.829Z,9.55
2022-12-25T05:49:28.300Z,13.77
2022-12-25T05:54:30.841Z,13.95
2022-12-25T05:59:34.197Z,16.70
2022-12-25T06:04:36.673Z,22.08
2022-12-25T06:09:39.396Z,18.40
2022-12-25T06:14:43.328Z,22.80
2022-12-25T06:19:45.863Z,16.98
2022-12-25T06:24:48.466Z,22.00
2022-12-25T06:29:51.026Z,27.48
2022-12-25T06:34:53.487Z,17.30
2022-12-25T06:39:55.961Z,30.33
2022-12-25T06:44:58.476Z,20.77
2022-12-25T06:50:00.965Z,21.17
2022-12-25T06:55:03.627Z,24.13
2022-12-25T07:00:09.250Z,30.38
2022-12-25T07:21:11.746Z,19.93
2022-12-25T07:26:15.024Z,22.25
2022-12-25T07:31:18.508Z,14.52
2022-12-25T07:36:21.597Z,22.83
2022-12-25T07:41:24.140Z,22.95
2022-12-25T07:46:27.177Z,23.27
2022-12-25T07:51:30.425Z,21.17
2022-12-25T07:56:33.516Z,23.17
2022-12-25T08:01:36.163Z,26.70
2022-12-25T08:06:39.085Z,24.88
2022-12-25T08:11:47.088Z,31.80
2022-12-25T08:16:50.750Z,20.60
2022-12-25T08:21:53.344Z,16.27
2022-12-25T08:26:56.485Z,24.70
2022-12-25T08:32:00.083Z,21.77
2022-12-25T08:37:02.569Z,27.07
2022-12-25T08:42:05.263Z,25.85
2022-12-25T08:47:07.804Z,26.13
2022-12-25T08:52:10.420Z,32.67
2022-12-25T08:57:12.925Z,28.55
2022-12-25T09:02:17.682Z,34.50
2022-12-25T09:07:20.433Z,29.83
2022-12-25T09:12:22.939Z,32.53
2022-12-25T09:17:25.587Z,32.33
2022-12-25T09:22:28.149Z,27.48
2022-12-25T09:27:30.671Z,31.47
2022-12-25T09:32:33.221Z,36.15
2022-12-25T09:37:35.823Z,31.92
2022-12-25T09:42:38.507Z,33.40
2022-12-25T09:47:43.719Z,37.05
2022-12-25T09:52:55.349Z,37.43
2022-12-25T09:58:01.178Z,33.42
2022-12-25T10:03:22.006Z,34.88
2022-12-25T10:09:05.344Z,36.27
2022-12-25T10:14:34.260Z,29.30
2022-12-25T10:19:54.940Z,27.07
2022-12-25T10:25:00.034Z,28.05
2022-12-25T10:30:20.895Z,33.33
2022-12-25T10:35:28.962Z,31.27
2022-12-25T10:40:53.838Z,29.98
2022-12-25T10:45:56.452Z,25.90
2022-12-25T10:51:00.790Z,31.90
2022-12-25T10:56:06.160Z,34.53
2022-12-25T11:01:09.107Z,40.30
2022-12-25T11:06:27.326Z,40.00
2022-12-25T11:11:30.843Z,39.47
2022-12-25T11:16:41.529Z,42.78
2022-12-25T11:21:54.106Z,53.42
2022-12-25T11:26:59.804Z,46.17
2022-12-25T11:32:04.368Z,46.38
2022-12-25T11:37:24.109Z,53.60
2022-12-25T11:42:37.942Z,58.45
2022-12-25T11:47:54.510Z,53.35
2022-12-25T11:53:01.124Z,70.50
2022-12-25T11:58:14.363Z,73.03
2022-12-25T12:03:24.429Z,63.60
2022-12-25T12:08:27.135Z,65.13
2022-12-25T12:13:32.403Z,62.58
2022-12-25T12:18:37.001Z,67.83
2022-12-25T12:24:03.432Z,65.38
2022-12-25T12:29:09.034Z,59.70
2022-12-25T12:34:45.661Z,59.05
2022-12-25T12:39:53.061Z,63.30
2022-12-25T12:44:58.363Z,63.70
2022-12-25T12:50:02.211Z,68.72
2022-12-25T12:55:13.398Z,70.23
2022-12-25T13:00:21.399Z,54.03
2022-12-25T13:05:48.809Z,46.67
2022-12-25T13:11:03.784Z,53.83
2022-12-25T13:16:11.019Z,40.00
2022-12-25T13:21:19.856Z,27.10
2022-12-25T13:26:22.373Z,37.72
2022-12-25T13:31:27.812Z,37.88
2022-12-25T13:36:37.207Z,38.57
2022-12-25T13:42:10.212Z,43.58
2022-12-25T13:47:30.058Z,38.87
2022-12-25T13:52:38.345Z,38.97
2022-12-25T13:57:59.412Z,45.92
2022-12-25T14:03:03.254Z,51.43
2022-12-25T14:08:19.650Z,39.15
2022-12-25T14:13:27.367Z,30.93
2022-12-25T14:18:31.039Z,37.17
2022-12-25T14:23:47.995Z,31.60
2022-12-25T14:29:02.338Z,38.47
2022-12-25T14:34:10.657Z,33.38
2022-12-25T14:39:37.329Z,25.93
2022-12-25T14:44:41.089Z,29.30
2022-12-25T14:49:44.490Z,21.30
2022-12-25T14:54:51.365Z,25.07
2022-12-25T14:59:59.870Z,31.85
2022-12-25T15:05:02.531Z,26.87
2022-12-25T15:10:57.616Z,27.95
2022-12-25T15:15:35.756Z,26.15
2022-12-25T15:20:41.949Z,33.03
2022-12-25T15:25:44.523Z,41.55
2022-12-25T15:30:47.789Z,38.27
2022-12-25T15:35:53.335Z,29.88
2022-12-25T15:40:55.949Z,22.27
2022-12-25T15:45:58.642Z,31.47
2022-12-25T15:51:01.148Z,27.00
2022-12-25T15:56:04.526Z,35.90
2022-12-25T16:01:07.159Z,30.42
2022-12-25T16:06:14.780Z,34.50
2022-12-25T16:11:17.356Z,37.77
2022-12-25T16:16:19.897Z,31.10
2022-12-25T16:21:23.332Z,29.70
2022-12-25T16:26:27.936Z,26.40
2022-12-25T16:31:30.614Z,26.42
2022-12-25T16:36:34.224Z,31.73
2022-12-25T16:41:37.319Z,33.60
2022-12-25T16:46:40.698Z,39.23
2022-12-25T16:51:43.345Z,25.85
2022-12-25T16:56:45.872Z,28.70
2022-12-25T17:01:48.749Z,26.43
2022-12-25T17:06:52.944Z,30.77
2022-12-25T17:11:55.636Z,25.60
2022-12-25T17:16:58.217Z,19.83
2022-12-25T17:22:00.892Z,15.23
2022-12-25T17:27:04.201Z,20.87
2022-12-25T17:32:10.525Z,19.60
2022-12-25T17:37:13.011Z,24.20
2022-12-25T17:42:15.595Z,15.85
2022-12-25T17:47:19.214Z,13.52
2022-12-25T17:52:23.741Z,17.13
2022-12-25T17:57:26.342Z,14.30
2022-12-25T18:02:30.162Z,11.90
2022-12-25T18:07:33.056Z,12.23
2022-12-25T18:12:35.744Z,16.05
2022-12-25T18:17:38.823Z,11.10
2022-12-25T18:22:42.846Z,13.75
2022-12-25T18:27:48.433Z,15.07
2022-12-25T18:32:51.008Z,15.82
2022-12-25T18:37:53.532Z,20.63
2022-12-25T18:43:02.721Z,16.50
2022-12-25T18:48:07.722Z,17.35
2022-12-25T18:53:10.308Z,16.37
2022-12-25T18:58:12.848Z,17.55
2022-12-25T19:03:15.421Z,15.35
2022-12-25T19:08:17.917Z,13.80
2022-12-25T19:13:20.399Z,13.52
2022-12-25T19:18:23.013Z,12.67
2022-12-25T19:23:25.557Z,16.33
2022-12-25T19:28:28.037Z,18.05
2022-12-25T19:33:32.487Z,14.20
2022-12-25T19:38:35.143Z,15.80
2022-12-25T19:43:39.411Z,14.73
2022-12-25T19:48:42.573Z,13.07
2022-12-25T19:53:45.750Z,12.10
2022-12-25T19:58:49.445Z,13.50
2022-12-25T20:03:52.624Z,10.98
2022-12-25T20:09:01.864Z,11.57
2022-12-25T20:14:06.549Z,13.80
2022-12-25T20:19:11.726Z,11.18
2022-12-25T20:24:14.296Z,9.13
2022-12-25T20:29:16.855Z,9.38
2022-12-25T20:34:19.398Z,10.00
2022-12-25T20:39:21.937Z,12.02
2022-12-25T20:44:24.458Z,11.25
2022-12-25T20:49:32.547Z,8.63
2022-12-25T20:54:35.427Z,9.80
2022-12-25T20:59:38.081Z,9.57
2022-12-25T21:04:40.602Z,10.88
2022-12-25T21:09:46.692Z,12.50
2022-12-25T21:14:49.140Z,7.37
2022-12-25T21:19:52.509Z,7.05
2022-12-25T21:24:55.099Z,6.67
2022-12-25T21:29:59.316Z,8.05
2022-12-25T21:35:18.033Z,8.05
2022-12-25T21:40:20.475Z,11.27
2022-12-25T21:45:23.737Z,12.35
2022-12-25T21:50:44.893Z,22.03
2022-12-25T21:56:06.062Z,23.60
2022-12-25T22:01:10.988Z,26.90
2022-12-25T22:06:31.839Z,17.00
2022-12-25T22:11:55.965Z,18.85
2022-12-25T22:17:16.745Z,19.60
2022-12-25T22:22:22.361Z,22.10
2022-12-25T22:27:25.629Z,15.32
2022-12-25T22:32:29.064Z,18.27
2022-12-25T22:37:31.985Z,10.80
2022-12-25T22:42:34.568Z,11.57
2022-12-25T22:47:37.327Z,10.85
2022-12-25T22:52:39.837Z,11.32
2022-12-25T22:57:42.337Z,10.50
2022-12-25T23:02:46.120Z,10.55
2022-12-25T23:07:51.745Z,13.57
2022-12-25T23:13:12.658Z,13.27
2022-12-25T23:18:36.622Z,16.73
2022-12-25T23:23:57.575Z,15.67
2022-12-25T23:29:18.708Z,17.45
2022-12-25T23:34:21.984Z,19.47
2022-12-25T23:39:24.728Z,22.85
2022-12-25T23:44:30.207Z,14.07
2022-12-25T23:49:32.720Z,15.13
2022-12-25T23:54:35.423Z,13.98
2022-12-25T23:59:37.928Z,12.23
